Time;durP1;ratioP1;P1;durP2;ratioP2;P2;SDS_P1;SDS_P2;PMS_P1;PMS_P2;Temp;Humidity;BMP_temperature;BMP_pressure;BME280_temperature;BME280_humidity;BME280_pressure;Samples;Min_cycle;Max_cycle;Signal;HPM_P1;HPM_P2
2023/03/27 00:02:40;;;;;;;1.67;1.57;;;;;;;;;;6186067;28;20310;-75
2023/03/27 00:05:46;;;;;;;2.63;1.57;;;;;;;;;;6185386;28;20300;-75
2023/03/27 00:08:52;;;;;;;1.40;1.40;;;;;;;;;;6185578;28;20381;-74
2023/03/27 00:11:57;;;;;;;1.67;1.57;;;;;;;;;;6187803;28;20579;-74
2023/03/27 00:15:04;;;;;;;1.30;1.30;;;;;;;;;;6185750;28;20304;-74
2023/03/27 00:18:12;;;;;;;1.60;1.50;;;;;;;;;;6185431;28;20299;-75
2023/03/27 00:21:17;;;;;;;1.53;1.53;;;;;;;;;;6188101;28;20374;-73
2023/03/27 00:24:22;;;;;;;1.70;1.60;;;;;;;;;;6190208;28;20318;-75
2023/03/27 00:27:27;;;;;;;1.53;1.50;;;;;;;;;;6190648;28;20294;-74
2023/03/27 00:30:34;;;;;;;2.23;1.60;;;;;;;;;;6189061;28;20311;-74
2023/03/27 00:33:39;;;;;;;1.70;1.57;;;;;;;;;;6188520;28;20304;-74
2023/03/27 00:36:49;;;;;;;1.47;1.47;;;;;;;;;;6190425;28;20300;-74
2023/03/27 00:39:55;;;;;;;2.63;1.20;;;;;;;;;;6189891;28;20300;-75
2023/03/27 00:43:00;;;;;;;2.37;2.20;;;;;;;;;;6189737;28;20291;-74
2023/03/27 00:46:17;;;;;;;1.50;1.40;;;;;;;;;;6190297;28;20437;-74
2023/03/27 00:49:23;;;;;;;2.03;1.80;;;;;;;;;;6189714;28;20298;-74
2023/03/27 00:52:30;;;;;;;2.17;1.57;;;;;;;;;;6190249;28;20297;-73
2023/03/27 00:55:55;;;;;;;1.63;1.60;;;;;;;;;;6189015;28;20308;-76
2023/03/27 00:59:02;;;;;;;1.60;1.60;;;;;;;;;;6188374;28;20311;-74
2023/03/27 01:02:10;;;;;;;2.13;2.03;;;;;;;;;;6189864;28;20290;-74
2023/03/27 01:05:15;;;;;;;1.70;1.60;;;;;;;;;;6210496;23;20370;-75
2023/03/27 01:08:23;;;;;;;1.67;1.60;;;;;;;;;;6185274;28;20297;-75
2023/03/27 01:11:39;;;;;;;3.50;1.57;;;;;;;;;;6173596;28;20296;-74
2023/03/27 01:14:54;;;;;;;1.73;1.60;;;;;;;;;;6184833;28;20487;-74
2023/03/27 01:18:14;;;;;;;1.70;1.60;;;;;;;;;;6188153;28;20446;-75
2023/03/27 01:21:47;;;;;;;3.07;1.70;;;;;;;;;;6178003;28;20291;-75
2023/03/27 01:25:03;;;;;;;2.03;1.93;;;;;;;;;;6174376;28;20611;-75
2023/03/27 01:28:33;;;;;;;3.00;1.60;;;;;;;;;;6183018;28;20298;-74
2023/03/27 01:32:07;;;;;;;2.37;1.93;;;;;;;;;;6187340;28;20295;-74
2023/03/27 01:35:42;;;;;;;2.00;1.90;;;;;;;;;;6176085;28;20382;-74
2023/03/27 01:39:15;;;;;;;1.83;1.73;;;;;;;;;;6151092;28;20294;-74
2023/03/27 01:42:23;;;;;;;1.80;1.70;;;;;;;;;;6178320;28;20301;-75
2023/03/27 01:45:33;;;;;;;1.10;1.10;;;;;;;;;;6183739;28;20603;-74
2023/03/27 01:48:43;;;;;;;2.27;2.10;;;;;;;;;;6181959;28;20493;-75
2023/03/27 01:51:52;;;;;;;1.83;1.83;;;;;;;;;;6181465;28;20300;-75
2023/03/27 01:55:03;;;;;;;1.93;1.83;;;;;;;;;;6187598;28;20295;-75
2023/03/27 01:58:15;;;;;;;3.47;1.70;;;;;;;;;;6186894;28;20293;-74
2023/03/27 02:01:24;;;;;;;2.00;1.90;;;;;;;;;;6185567;28;20310;-74
2023/03/27 02:04:33;;;;;;;1.77;1.70;;;;;;;;;;6187415;28;20308;-75
2023/03/27 02:07:44;;;;;;;2.03;1.80;;;;;;;;;;6187594;28;20275;-75
2023/03/27 02:10:53;;;;;;;4.07;1.83;;;;;;;;;;6187731;28;20311;-75
2023/03/27 02:14:02;;;;;;;1.83;1.80;;;;;;;;;;6187575;28;20314;-75
2023/03/27 02:17:12;;;;;;;1.40;1.40;;;;;;;;;;6188401;28;20286;-74
2023/03/27 02:20:19;;;;;;;2.37;2.03;;;;;;;;;;6174443;28;20298;-75
2023/03/27 02:23:24;;;;;;;1.60;1.60;;;;;;;;;;6183188;28;20301;-76
2023/03/27 02:26:31;;;;;;;1.70;1.60;;;;;;;;;;6170691;28;20544;-74
2023/03/27 02:29:47;;;;;;;3.83;1.53;;;;;;;;;;6183594;28;20325;-74
2023/03/27 02:32:57;;;;;;;1.63;1.63;;;;;;;;;;6188244;28;20296;-75
2023/03/27 02:36:13;;;;;;;1.70;1.70;;;;;;;;;;6176393;28;20298;-74
2023/03/27 02:39:26;;;;;;;1.53;1.43;;;;;;;;;;6188511;28;20493;-75
2023/03/27 02:42:41;;;;;;;1.87;1.60;;;;;;;;;;6189483;28;20381;-74
2023/03/27 02:45:51;;;;;;;3.70;2.00;;;;;;;;;;6188553;28;20481;-75
2023/03/27 02:48:58;;;;;;;1.80;1.80;;;;;;;;;;6181365;28;20453;-75
2023/03/27 02:52:07;;;;;;;1.93;1.70;;;;;;;;;;6184304;28;20299;-74
2023/03/27 02:55:16;;;;;;;1.60;1.57;;;;;;;;;;6169499;28;20479;-76
2023/03/27 02:58:29;;;;;;;1.80;1.80;;;;;;;;;;6182396;28;20560;-75
2023/03/27 03:01:43;;;;;;;1.73;1.73;;;;;;;;;;6184732;28;20323;-74
2023/03/27 03:05:03;;;;;;;1.93;1.93;;;;;;;;;;6163984;28;20308;-75
2023/03/27 03:08:15;;;;;;;1.60;1.60;;;;;;;;;;6185275;28;20299;-75
2023/03/27 03:11:22;;;;;;;4.33;1.73;;;;;;;;;;6185707;28;20380;-74
2023/03/27 03:14:32;;;;;;;1.60;1.60;;;;;;;;;;6175671;28;20294;-75
2023/03/27 03:17:37;;;;;;;2.30;1.80;;;;;;;;;;6184406;28;20293;-75
2023/03/27 03:20:43;;;;;;;2.60;1.80;;;;;;;;;;6171879;28;20304;-75
2023/03/27 03:23:48;;;;;;;1.97;1.87;;;;;;;;;;6185406;28;20482;-75
2023/03/27 03:27:04;;;;;;;1.90;1.80;;;;;;;;;;6186244;28;20290;-74
2023/03/27 03:30:22;;;;;;;2.20;1.70;;;;;;;;;;6185351;28;20496;-75
2023/03/27 03:33:44;;;;;;;1.93;1.63;;;;;;;;;;6185947;28;20309;-74
2023/03/27 03:36:49;;;;;;;1.53;1.53;;;;;;;;;;6186066;28;20549;-75
2023/03/27 03:39:59;;;;;;;2.30;2.07;;;;;;;;;;6184471;28;20309;-74
2023/03/27 03:43:04;;;;;;;1.60;1.60;;;;;;;;;;6181889;28;20299;-75
2023/03/27 03:46:13;;;;;;;1.47;1.47;;;;;;;;;;6182263;28;20602;-76
2023/03/27 03:49:18;;;;;;;1.67;1.60;;;;;;;;;;6185877;28;20293;-75
2023/03/27 03:52:23;;;;;;;1.87;1.77;;;;;;;;;;6192927;28;20311;-75
2023/03/27 03:55:28;;;;;;;1.60;1.60;;;;;;;;;;6185585;28;20302;-75
2023/03/27 03:58:34;;;;;;;1.87;1.70;;;;;;;;;;6184976;28;20296;-74
2023/03/27 04:01:44;;;;;;;2.90;1.70;;;;;;;;;;6184143;28;20359;-74
2023/03/27 04:04:50;;;;;;;1.60;1.60;;;;;;;;;;6185004;28;20305;-75
2023/03/27 04:07:58;;;;;;;1.70;1.70;;;;;;;;;;6183721;28;20305;-74
2023/03/27 04:11:03;;;;;;;1.47;1.40;;;;;;;;;;6186474;28;20297;-74
2023/03/27 04:14:27;;;;;;;2.00;2.00;;;;;;;;;;6163245;28;20474;-75
2023/03/27 04:17:37;;;;;;;1.80;1.80;;;;;;;;;;6176687;28;20305;-74
2023/03/27 04:20:48;;;;;;;1.93;1.93;;;;;;;;;;6168391;28;20303;-74
2023/03/27 04:24:01;;;;;;;2.00;1.90;;;;;;;;;;6153273;28;20301;-74
2023/03/27 04:27:22;;;;;;;1.97;1.80;;;;;;;;;;6151873;29;20373;-74
2023/03/27 04:30:35;;;;;;;1.70;1.70;;;;;;;;;;6168249;28;20314;-74
2023/03/27 04:34:19;;;;;;;2.00;1.80;;;;;;;;;;6136809;28;20631;-76
2023/03/27 04:37:43;;;;;;;3.13;1.60;;;;;;;;;;6160779;28;20290;-75
2023/03/27 04:41:07;;;;;;;1.83;1.73;;;;;;;;;;6157254;28;20326;-75
2023/03/27 04:44:12;;;;;;;2.13;1.93;;;;;;;;;;6137026;28;20293;-74
2023/03/27 04:47:20;;;;;;;1.70;1.70;;;;;;;;;;6137452;28;20295;-75
2023/03/27 04:50:29;;;;;;;2.73;2.20;;;;;;;;;;6176919;28;20298;-74
2023/03/27 04:53:36;;;;;;;2.03;1.93;;;;;;;;;;6153437;28;20298;-75
2023/03/27 04:56:44;;;;;;;2.53;2.30;;;;;;;;;;6137224;29;20296;-75
2023/03/27 04:59:49;;;;;;;1.70;1.70;;;;;;;;;;6136893;28;20298;-75
2023/03/27 05:03:17;;;;;;;1.90;1.90;;;;;;;;;;6138221;28;20306;-75
2023/03/27 05:06:39;;;;;;;2.03;2.03;;;;;;;;;;6170688;28;20299;-74
2023/03/27 05:09:49;;;;;;;1.90;1.90;;;;;;;;;;6167903;28;20309;-75
2023/03/27 05:12:54;;;;;;;1.90;1.90;;;;;;;;;;6188756;28;20305;-74
2023/03/27 05:16:02;;;;;;;2.03;1.93;;;;;;;;;;6188849;28;20600;-75
2023/03/27 05:19:18;;;;;;;1.93;1.80;;;;;;;;;;6189976;28;20622;-75
2023/03/27 05:22:30;;;;;;;2.00;1.97;;;;;;;;;;6188642;28;20298;-74
2023/03/27 05:25:45;;;;;;;1.20;1.20;;;;;;;;;;6188346;28;20281;-75
2023/03/27 05:29:20;;;;;;;2.13;2.03;;;;;;;;;;6188517;28;20301;-74
2023/03/27 05:32:36;;;;;;;2.10;1.70;;;;;;;;;;6188099;28;20299;-75
2023/03/27 05:35:52;;;;;;;1.77;1.77;;;;;;;;;;6188722;28;20318;-75
2023/03/27 05:38:59;;;;;;;3.20;2.00;;;;;;;;;;6188238;28;20305;-75
2023/03/27 05:42:16;;;;;;;1.57;1.50;;;;;;;;;;6188801;28;20302;-74
2023/03/27 05:45:23;;;;;;;1.90;1.90;;;;;;;;;;6188384;28;20294;-75
2023/03/27 05:48:28;;;;;;;1.77;1.77;;;;;;;;;;6188001;28;20309;-74
2023/03/27 05:51:37;;;;;;;1.80;1.80;;;;;;;;;;6187897;28;20296;-74
2023/03/27 05:54:53;;;;;;;2.40;2.20;;;;;;;;;;6187374;28;20300;-74
2023/03/27 05:57:59;;;;;;;2.87;1.80;;;;;;;;;;6188615;28;20297;-74
2023/03/27 06:01:05;;;;;;;2.37;2.27;;;;;;;;;;6188279;28;20298;-74
2023/03/27 06:04:11;;;;;;;1.93;1.90;;;;;;;;;;6186797;28;20301;-73
2023/03/27 06:07:38;;;;;;;2.10;2.10;;;;;;;;;;6186028;28;20302;-75
2023/03/27 06:10:48;;;;;;;2.00;2.00;;;;;;;;;;6188509;28;20266;-75
2023/03/27 06:14:01;;;;;;;1.40;1.37;;;;;;;;;;6187606;28;20297;-74
2023/03/27 06:17:20;;;;;;;1.80;1.80;;;;;;;;;;6187693;28;20290;-74
2023/03/27 06:20:30;;;;;;;1.70;1.70;;;;;;;;;;6170035;28;20304;-74
2023/03/27 06:23:37;;;;;;;2.00;2.00;;;;;;;;;;6187104;28;20304;-75
2023/03/27 06:26:49;;;;;;;2.20;2.10;;;;;;;;;;6187374;28;20380;-76
2023/03/27 06:29:54;;;;;;;1.77;1.77;;;;;;;;;;6186440;28;20479;-75
2023/03/27 06:33:00;;;;;;;2.47;2.37;;;;;;;;;;6174229;28;20376;-76
2023/03/27 06:36:07;;;;;;;2.63;2.00;;;;;;;;;;6176532;28;20290;-74
2023/03/27 06:39:14;;;;;;;3.33;2.23;;;;;;;;;;6186209;28;20349;-75
2023/03/27 06:42:27;;;;;;;2.00;1.90;;;;;;;;;;6187973;28;20318;-75
2023/03/27 06:45:44;;;;;;;1.70;1.70;;;;;;;;;;6186366;28;20357;-75
2023/03/27 06:49:08;;;;;;;1.80;1.70;;;;;;;;;;6144329;28;20546;-73
2023/03/27 06:52:13;;;;;;;1.90;1.90;;;;;;;;;;6140329;28;20595;-74
2023/03/27 06:55:21;;;;;;;2.10;2.00;;;;;;;;;;6140308;28;20579;-75
2023/03/27 06:58:31;;;;;;;1.87;1.87;;;;;;;;;;6153813;28;20295;-74
2023/03/27 07:01:37;;;;;;;3.03;1.80;;;;;;;;;;6162406;28;20298;-75
2023/03/27 07:05:00;;;;;;;1.80;1.80;;;;;;;;;;6155571;28;20297;-73
2023/03/27 07:08:18;;;;;;;3.27;1.70;;;;;;;;;;6162190;28;20373;-73
2023/03/27 07:11:31;;;;;;;1.90;1.80;;;;;;;;;;6162916;28;20298;-75
2023/03/27 07:14:46;;;;;;;2.40;1.87;;;;;;;;;;6180588;28;20246;-75
2023/03/27 07:17:55;;;;;;;1.97;1.87;;;;;;;;;;6186173;28;20357;-73
2023/03/27 07:21:00;;;;;;;2.13;2.03;;;;;;;;;;6186489;28;20294;-73
2023/03/27 07:24:06;;;;;;;2.60;1.93;;;;;;;;;;6186172;28;20298;-73
2023/03/27 07:27:15;;;;;;;1.83;1.83;;;;;;;;;;6186952;28;20302;-74
2023/03/27 07:30:23;;;;;;;1.90;1.90;;;;;;;;;;6185634;28;20315;-73
2023/03/27 07:33:29;;;;;;;2.20;2.03;;;;;;;;;;6185741;28;20291;-73
2023/03/27 07:36:35;;;;;;;1.73;1.73;;;;;;;;;;6186126;28;20290;-72
2023/03/27 07:39:43;;;;;;;2.40;2.40;;;;;;;;;;6185906;28;20374;-74
2023/03/27 07:42:49;;;;;;;2.27;2.17;;;;;;;;;;6182991;28;20314;-73
2023/03/27 07:45:57;;;;;;;1.80;1.80;;;;;;;;;;6180559;28;20290;-73
2023/03/27 07:49:04;;;;;;;1.50;1.50;;;;;;;;;;6186173;28;20299;-74
2023/03/27 07:52:11;;;;;;;1.93;1.87;;;;;;;;;;6186227;28;20301;-73
2023/03/27 07:55:30;;;;;;;3.00;2.27;;;;;;;;;;6184994;28;20307;-73
2023/03/27 07:58:41;;;;;;;1.80;1.80;;;;;;;;;;6160915;28;20481;-73
2023/03/27 08:01:49;;;;;;;1.90;1.80;;;;;;;;;;6185954;28;20280;-74
2023/03/27 08:04:56;;;;;;;2.23;2.10;;;;;;;;;;6184800;28;20586;-74
2023/03/27 08:08:01;;;;;;;2.07;2.03;;;;;;;;;;6184526;28;20297;-74
2023/03/27 08:11:22;;;;;;;1.70;1.60;;;;;;;;;;6185642;28;20308;-74
2023/03/27 08:14:35;;;;;;;2.00;2.00;;;;;;;;;;6185070;28;20647;-75
2023/03/27 08:17:53;;;;;;;2.07;2.00;;;;;;;;;;6184169;28;20306;-74
2023/03/27 08:21:04;;;;;;;1.93;1.73;;;;;;;;;;6185488;28;20319;-76
2023/03/27 08:24:11;;;;;;;1.93;1.80;;;;;;;;;;6184979;28;20298;-76
2023/03/27 08:27:35;;;;;;;1.93;1.93;;;;;;;;;;6186638;28;20290;-75
2023/03/27 08:30:40;;;;;;;2.00;1.90;;;;;;;;;;6185452;28;20300;-75
2023/03/27 08:33:48;;;;;;;2.40;2.20;;;;;;;;;;6185079;28;20460;-75
2023/03/27 08:36:59;;;;;;;1.60;1.60;;;;;;;;;;6185129;28;20298;-76
2023/03/27 08:40:32;;;;;;;1.80;1.80;;;;;;;;;;6160244;28;20298;-74
2023/03/27 08:43:56;;;;;;;6.27;5.00;;;;;;;;;;6180840;28;20309;-73
2023/03/27 08:47:05;;;;;;;5.30;4.53;;;;;;;;;;6165672;28;20607;-73
2023/03/27 08:50:30;;;;;;;2.80;2.70;;;;;;;;;;6167034;28;20300;-75
2023/03/27 08:54:07;;;;;;;2.40;2.30;;;;;;;;;;6166868;28;20300;-75
2023/03/27 08:57:18;;;;;;;3.43;2.50;;;;;;;;;;6182081;28;20312;-74
2023/03/27 09:00:32;;;;;;;2.63;2.03;;;;;;;;;;6165357;28;20298;-74
2023/03/27 09:03:58;;;;;;;2.07;1.93;;;;;;;;;;6180211;28;20307;-74
2023/03/27 09:07:10;;;;;;;10.53;6.87;;;;;;;;;;6181660;28;20633;-75
2023/03/27 09:10:32;;;;;;;6.00;1.90;;;;;;;;;;6165183;28;20295;-74
2023/03/27 09:13:45;;;;;;;4.17;2.50;;;;;;;;;;6169985;28;20308;-74
2023/03/27 09:16:52;;;;;;;5.90;2.43;;;;;;;;;;6142912;28;20276;-74
2023/03/27 09:20:17;;;;;;;2.40;2.33;;;;;;;;;;6157191;28;20280;-75
2023/03/27 09:23:28;;;;;;;1.90;1.90;;;;;;;;;;6140930;28;20307;-74
2023/03/27 09:26:57;;;;;;;2.47;2.27;;;;;;;;;;6115367;28;20300;-75
2023/03/27 09:30:25;;;;;;;3.63;3.40;;;;;;;;;;6141091;28;20303;-75
2023/03/27 09:33:40;;;;;;;6.23;3.50;;;;;;;;;;6155790;28;20321;-74
2023/03/27 09:36:45;;;;;;;3.30;3.20;;;;;;;;;;6141407;29;20304;-75
2023/03/27 09:39:53;;;;;;;2.57;2.43;;;;;;;;;;6179347;28;20302;-75
2023/03/27 09:43:08;;;;;;;2.47;2.40;;;;;;;;;;6183310;28;20628;-75
2023/03/27 09:46:18;;;;;;;3.40;3.20;;;;;;;;;;6186481;28;20294;-74
2023/03/27 09:49:32;;;;;;;2.10;2.10;;;;;;;;;;6172422;28;20303;-75
2023/03/27 09:52:39;;;;;;;3.53;2.40;;;;;;;;;;6185146;28;20273;-76
2023/03/27 09:55:57;;;;;;;2.80;2.60;;;;;;;;;;6187967;28;20289;-74
2023/03/27 09:59:10;;;;;;;1.80;1.80;;;;;;;;;;6178895;28;20293;-74
2023/03/27 10:02:19;;;;;;;2.23;2.03;;;;;;;;;;6188342;28;20302;-74
2023/03/27 10:05:24;;;;;;;3.13;2.23;;;;;;;;;;6172398;28;20306;-76
2023/03/27 10:08:37;;;;;;;4.63;2.23;;;;;;;;;;6187598;28;20609;-74
2023/03/27 10:12:04;;;;;;;2.23;2.13;;;;;;;;;;6188714;28;20297;-73
2023/03/27 10:15:32;;;;;;;3.03;2.03;;;;;;;;;;6188582;28;20511;-74
2023/03/27 10:18:44;;;;;;;3.03;1.87;;;;;;;;;;6190185;28;20300;-74
2023/03/27 10:21:53;;;;;;;3.23;2.30;;;;;;;;;;6188975;28;20290;-75
2023/03/27 10:25:04;;;;;;;1.87;1.87;;;;;;;;;;6187466;28;20304;-75
2023/03/27 10:28:44;;;;;;;2.00;1.90;;;;;;;;;;6189520;28;20295;-75
2023/03/27 10:32:00;;;;;;;3.97;2.70;;;;;;;;;;6187635;28;20291;-74
2023/03/27 10:35:23;;;;;;;2.10;2.00;;;;;;;;;;6187270;28;20610;-74
2023/03/27 10:38:56;;;;;;;2.70;1.90;;;;;;;;;;6187096;28;20327;-74
2023/03/27 10:42:33;;;;;;;2.03;1.73;;;;;;;;;;6180056;28;20294;-74
2023/03/27 10:45:47;;;;;;;2.00;2.00;;;;;;;;;;6187266;28;20312;-76
2023/03/27 10:48:58;;;;;;;2.43;2.30;;;;;;;;;;6187201;28;20310;-74
2023/03/27 10:52:13;;;;;;;1.90;1.90;;;;;;;;;;6187256;28;20439;-74
2023/03/27 10:55:59;;;;;;;4.33;2.37;;;;;;;;;;6179245;28;20290;-74
2023/03/27 10:59:08;;;;;;;2.07;1.97;;;;;;;;;;6170059;28;20291;-74
2023/03/27 11:02:19;;;;;;;3.60;3.30;;;;;;;;;;6187418;28;20295;-77
2023/03/27 11:05:29;;;;;;;2.57;2.47;;;;;;;;;;6186077;28;20310;-74
2023/03/27 11:08:40;;;;;;;1.57;1.57;;;;;;;;;;6186307;28;20295;-74
2023/03/27 11:11:49;;;;;;;1.83;1.53;;;;;;;;;;6188277;28;20301;-75
2023/03/27 11:14:59;;;;;;;2.23;2.23;;;;;;;;;;6177705;28;20309;-74
2023/03/27 11:18:15;;;;;;;2.00;1.90;;;;;;;;;;6181225;28;20295;-75
2023/03/27 11:21:36;;;;;;;2.20;1.80;;;;;;;;;;6178098;28;20296;-73
2023/03/27 11:24:47;;;;;;;2.60;2.50;;;;;;;;;;6185967;28;20315;-73
2023/03/27 11:27:58;;;;;;;4.83;4.53;;;;;;;;;;6182562;28;20299;-73
2023/03/27 11:31:12;;;;;;;1.40;1.40;;;;;;;;;;6182113;28;20299;-74
2023/03/27 11:34:29;;;;;;;2.20;2.00;;;;;;;;;;6171197;28;20295;-74
2023/03/27 11:37:58;;;;;;;2.93;1.80;;;;;;;;;;6186359;28;20304;-75
2023/03/27 11:41:12;;;;;;;2.30;2.20;;;;;;;;;;6186568;28;20292;-74
2023/03/27 11:44:20;;;;;;;2.57;2.40;;;;;;;;;;6186680;28;20297;-73
2023/03/27 11:48:02;;;;;;;2.37;2.17;;;;;;;;;;6179978;28;20309;-74
2023/03/27 11:51:22;;;;;;;2.03;1.93;;;;;;;;;;6185833;28;20337;-74
2023/03/27 11:54:44;;;;;;;2.27;2.10;;;;;;;;;;6185861;28;20309;-74
2023/03/27 11:58:08;;;;;;;3.13;2.47;;;;;;;;;;6184968;28;20299;-72
2023/03/27 12:01:25;;;;;;;2.33;2.23;;;;;;;;;;6185556;28;20585;-73
2023/03/27 12:04:43;;;;;;;1.80;1.80;;;;;;;;;;6184931;28;20316;-76
2023/03/27 12:08:14;;;;;;;2.00;2.00;;;;;;;;;;6185542;28;20301;-74
2023/03/27 12:11:24;;;;;;;1.93;1.90;;;;;;;;;;6185854;28;20296;-74
2023/03/27 12:14:46;;;;;;;1.90;1.90;;;;;;;;;;6176681;28;20302;-74
2023/03/27 12:17:58;;;;;;;2.23;2.03;;;;;;;;;;6185102;28;20307;-72
2023/03/27 12:21:12;;;;;;;3.70;1.60;;;;;;;;;;6178242;28;20301;-74
2023/03/27 12:24:44;;;;;;;1.80;1.70;;;;;;;;;;6167621;28;20311;-74
2023/03/27 12:28:37;;;;;;;1.70;1.70;;;;;;;;;;6145092;28;20293;-73
2023/03/27 12:32:28;;;;;;;2.13;1.80;;;;;;;;;;6141823;29;20584;-74
2023/03/27 12:35:41;;;;;;;1.97;1.87;;;;;;;;;;6159174;28;20298;-73
2023/03/27 12:38:53;;;;;;;1.80;1.80;;;;;;;;;;6175721;28;20294;-73
2023/03/27 12:41:59;;;;;;;1.73;1.60;;;;;;;;;;6190155;28;20294;-74
2023/03/27 12:45:18;;;;;;;1.70;1.70;;;;;;;;;;6189003;28;20326;-74
2023/03/27 12:48:27;;;;;;;1.90;1.90;;;;;;;;;;6182021;28;20305;-75
2023/03/27 12:51:46;;;;;;;2.20;2.00;;;;;;;;;;6182531;28;20291;-75
2023/03/27 12:55:32;;;;;;;3.00;2.03;;;;;;;;;;6189002;28;20312;-74
2023/03/27 12:58:40;;;;;;;2.17;2.07;;;;;;;;;;6152078;28;20299;-75
2023/03/27 13:02:41;;;;;;;1.67;1.53;;;;;;;;;;6190347;28;20371;-76
2023/03/27 13:06:13;;;;;;;2.30;2.20;;;;;;;;;;6173898;28;20312;-74
2023/03/27 13:09:32;;;;;;;1.60;1.60;;;;;;;;;;6188760;28;20297;-73
2023/03/27 13:12:59;;;;;;;2.43;2.33;;;;;;;;;;6189059;28;20295;-73
2023/03/27 13:16:27;;;;;;;2.37;2.10;;;;;;;;;;6189392;28;20302;-73
2023/03/27 13:19:45;;;;;;;2.47;2.27;;;;;;;;;;6188729;28;20298;-73
2023/03/27 13:23:08;;;;;;;2.23;2.20;;;;;;;;;;6188020;28;20294;-74
2023/03/27 13:26:29;;;;;;;1.83;1.83;;;;;;;;;;6188900;28;20295;-71
2023/03/27 13:29:38;;;;;;;2.37;2.00;;;;;;;;;;6188172;28;20476;-73
2023/03/27 13:33:13;;;;;;;1.37;1.27;;;;;;;;;;6188470;28;20298;-77
2023/03/27 13:36:23;;;;;;;4.63;1.77;;;;;;;;;;6188464;28;20316;-74
2023/03/27 13:39:40;;;;;;;3.70;1.70;;;;;;;;;;6187356;28;20306;-74
2023/03/27 13:42:48;;;;;;;1.97;1.87;;;;;;;;;;6179518;28;20299;-75
2023/03/27 13:45:58;;;;;;;1.50;1.50;;;;;;;;;;6183400;28;20299;-74
2023/03/27 13:49:48;;;;;;;1.50;1.50;;;;;;;;;;6165782;28;20306;-75
2023/03/27 13:53:12;;;;;;;2.37;2.00;;;;;;;;;;6166317;28;20290;-75
2023/03/27 13:56:36;;;;;;;1.40;1.40;;;;;;;;;;6188713;28;20295;-74
2023/03/27 14:00:05;;;;;;;1.40;1.40;;;;;;;;;;6179345;28;20486;-72
2023/03/27 14:03:50;;;;;;;2.30;2.13;;;;;;;;;;6181803;28;20499;-74
2023/03/27 14:07:37;;;;;;;1.50;1.50;;;;;;;;;;6183235;28;20295;-73
2023/03/27 14:11:02;;;;;;;1.97;1.83;;;;;;;;;;6187505;28;20299;-73
2023/03/27 14:14:37;;;;;;;7.20;1.60;;;;;;;;;;6159897;28;20295;-75
2023/03/27 14:17:55;;;;;;;1.37;1.37;;;;;;;;;;6139756;28;20310;-74
2023/03/27 14:21:02;;;;;;;2.13;2.00;;;;;;;;;;6140305;28;20312;-73
2023/03/27 14:24:29;;;;;;;1.70;1.60;;;;;;;;;;6139492;28;20306;-72
2023/03/27 14:27:50;;;;;;;2.23;2.13;;;;;;;;;;6139523;28;20303;-73
2023/03/27 14:30:56;;;;;;;1.97;1.97;;;;;;;;;;6139911;29;20296;-72
2023/03/27 14:34:23;;;;;;;3.10;1.80;;;;;;;;;;6139172;29;20296;-72
2023/03/27 14:37:43;;;;;;;1.90;1.90;;;;;;;;;;6143616;28;20298;-72
2023/03/27 14:41:19;;;;;;;1.70;1.70;;;;;;;;;;6187106;28;20358;-71
2023/03/27 14:44:32;;;;;;;2.00;2.00;;;;;;;;;;6177904;28;20301;-76
2023/03/27 14:47:46;;;;;;;1.80;1.70;;;;;;;;;;6184853;28;20303;-75
2023/03/27 14:50:54;;;;;;;1.90;1.80;;;;;;;;;;6173293;28;20300;-75
2023/03/27 14:54:05;;;;;;;2.20;2.10;;;;;;;;;;6185603;28;20543;-75
2023/03/27 14:57:24;;;;;;;8.70;5.43;;;;;;;;;;6187339;28;20595;-71
2023/03/27 15:00:34;;;;;;;32.77;11.13;;;;;;;;;;6177404;28;20297;-74
2023/03/27 15:03:40;;;;;;;3.80;3.20;;;;;;;;;;6186220;28;20501;-73
2023/03/27 15:06:48;;;;;;;2.23;2.23;;;;;;;;;;6188266;28;20300;-74
2023/03/27 15:10:22;;;;;;;2.10;2.00;;;;;;;;;;6186904;28;20465;-74
2023/03/27 15:13:48;;;;;;;1.57;1.57;;;;;;;;;;6186667;28;20295;-74
2023/03/27 15:17:01;;;;;;;1.97;1.97;;;;;;;;;;6186742;28;20295;-75
2023/03/27 15:20:14;;;;;;;1.50;1.50;;;;;;;;;;6186236;28;20294;-76
2023/03/27 15:23:21;;;;;;;1.87;1.77;;;;;;;;;;6185764;28;20302;-74
2023/03/27 15:26:30;;;;;;;1.30;1.30;;;;;;;;;;6186248;28;20310;-74
2023/03/27 15:29:41;;;;;;;1.80;1.80;;;;;;;;;;6186541;28;20294;-74
2023/03/27 15:32:51;;;;;;;2.47;1.57;;;;;;;;;;6187146;28;20293;-74
2023/03/27 15:35:57;;;;;;;1.67;1.67;;;;;;;;;;6187366;28;20322;-74
2023/03/27 15:39:05;;;;;;;3.03;1.80;;;;;;;;;;6185787;28;20303;-75
2023/03/27 15:42:13;;;;;;;1.20;1.20;;;;;;;;;;6186971;28;20295;-75
2023/03/27 15:45:21;;;;;;;1.50;1.40;;;;;;;;;;6177669;28;20299;-75
2023/03/27 15:48:32;;;;;;;1.00;1.00;;;;;;;;;;6178872;28;20303;-74
2023/03/27 15:51:40;;;;;;;1.40;1.40;;;;;;;;;;6179045;28;20495;-75
2023/03/27 15:54:54;;;;;;;1.93;1.33;;;;;;;;;;6185529;28;20494;-74
2023/03/27 15:58:00;;;;;;;1.20;1.20;;;;;;;;;;6182645;28;20296;-75
2023/03/27 16:01:07;;;;;;;1.30;1.30;;;;;;;;;;6183118;28;20290;-74
2023/03/27 16:04:27;;;;;;;1.20;1.20;;;;;;;;;;6170765;28;20323;-74
2023/03/27 16:07:43;;;;;;;1.50;1.50;;;;;;;;;;6185298;28;20296;-74
2023/03/27 16:10:48;;;;;;;1.60;1.50;;;;;;;;;;6163863;28;20285;-74
2023/03/27 16:13:55;;;;;;;1.47;1.27;;;;;;;;;;6186313;28;20296;-75
2023/03/27 16:17:23;;;;;;;1.30;1.30;;;;;;;;;;6186732;28;20298;-74
2023/03/27 16:20:36;;;;;;;1.23;1.23;;;;;;;;;;6186041;28;20303;-74
2023/03/27 16:23:43;;;;;;;1.90;1.80;;;;;;;;;;6184773;28;20567;-74
2023/03/27 16:26:48;;;;;;;1.80;1.70;;;;;;;;;;6186956;28;20320;-74
2023/03/27 16:29:54;;;;;;;1.50;1.40;;;;;;;;;;6186420;28;20314;-74
2023/03/27 16:33:01;;;;;;;1.50;0.97;;;;;;;;;;6186091;28;20322;-74
2023/03/27 16:36:08;;;;;;;1.63;1.40;;;;;;;;;;6186808;28;20301;-75
2023/03/27 16:39:14;;;;;;;1.60;1.50;;;;;;;;;;6185216;28;20325;-75
2023/03/27 16:42:20;;;;;;;1.67;1.63;;;;;;;;;;6187594;28;20313;-74
2023/03/27 16:45:29;;;;;;;1.50;1.50;;;;;;;;;;6187385;28;20578;-76
2023/03/27 16:48:36;;;;;;;1.20;1.20;;;;;;;;;;6169950;28;20298;-74
2023/03/27 16:51:42;;;;;;;2.40;1.50;;;;;;;;;;6186897;28;20399;-75
2023/03/27 16:54:47;;;;;;;1.60;1.60;;;;;;;;;;6186533;28;20314;-74
2023/03/27 16:57:53;;;;;;;1.30;1.30;;;;;;;;;;6186242;28;20301;-75
2023/03/27 17:00:59;;;;;;;1.60;1.60;;;;;;;;;;6186614;28;20306;-74
2023/03/27 17:04:06;;;;;;;2.03;1.93;;;;;;;;;;6176187;28;20318;-76
2023/03/27 17:07:12;;;;;;;2.53;2.30;;;;;;;;;;6186478;28;20294;-75
2023/03/27 17:10:18;;;;;;;3.40;1.60;;;;;;;;;;6189225;28;20302;-76
2023/03/27 17:13:23;;;;;;;1.67;1.60;;;;;;;;;;6190365;28;20531;-75
2023/03/27 17:16:29;;;;;;;2.33;1.73;;;;;;;;;;6189854;28;20479;-75
2023/03/27 17:19:36;;;;;;;1.83;1.73;;;;;;;;;;6190045;28;20302;-75
2023/03/27 17:22:41;;;;;;;1.80;1.73;;;;;;;;;;6189662;28;20273;-76
2023/03/27 17:25:47;;;;;;;3.33;2.30;;;;;;;;;;6189639;28;20276;-76
2023/03/27 17:28:52;;;;;;;1.60;1.60;;;;;;;;;;6190068;28;20303;-76
2023/03/27 17:31:59;;;;;;;1.97;1.90;;;;;;;;;;6190940;28;20295;-75
2023/03/27 17:35:07;;;;;;;1.67;1.67;;;;;;;;;;6189766;28;20302;-75
2023/03/27 17:38:17;;;;;;;1.90;1.90;;;;;;;;;;6189627;28;20301;-76
2023/03/27 17:41:23;;;;;;;1.67;1.67;;;;;;;;;;6190632;28;20608;-74
2023/03/27 17:44:28;;;;;;;1.57;1.57;;;;;;;;;;6188905;28;20300;-74
2023/03/27 17:47:33;;;;;;;1.70;1.70;;;;;;;;;;6189023;28;20558;-73
2023/03/27 17:50:40;;;;;;;2.00;2.00;;;;;;;;;;6174276;28;20301;-75
2023/03/27 17:53:45;;;;;;;1.60;1.60;;;;;;;;;;6188659;28;20358;-74
2023/03/27 17:56:50;;;;;;;1.47;1.47;;;;;;;;;;6190865;28;20296;-76
2023/03/27 17:59:56;;;;;;;2.30;1.87;;;;;;;;;;6181183;28;20304;-74
2023/03/27 18:03:01;;;;;;;1.50;1.50;;;;;;;;;;6185072;28;20503;-74
2023/03/27 18:06:08;;;;;;;2.27;2.20;;;;;;;;;;6177786;28;20289;-76
2023/03/27 18:09:13;;;;;;;1.40;1.40;;;;;;;;;;6188587;28;20320;-75
2023/03/27 18:12:18;;;;;;;1.83;1.73;;;;;;;;;;6189688;28;20297;-76
2023/03/27 18:15:24;;;;;;;1.50;1.50;;;;;;;;;;6179325;28;20313;-76
2023/03/27 18:18:29;;;;;;;1.70;1.60;;;;;;;;;;6181000;28;20317;-76
2023/03/27 18:21:36;;;;;;;3.20;1.43;;;;;;;;;;6179950;28;20302;-75
2023/03/27 18:24:41;;;;;;;1.77;1.77;;;;;;;;;;6188161;28;20298;-75
2023/03/27 18:27:48;;;;;;;1.50;1.50;;;;;;;;;;6186644;28;20296;-76
2023/03/27 18:31:00;;;;;;;1.53;1.53;;;;;;;;;;6183650;28;20308;-76
2023/03/27 18:34:07;;;;;;;1.53;1.53;;;;;;;;;;6187647;28;20293;-75
2023/03/27 18:37:15;;;;;;;2.00;1.63;;;;;;;;;;6188386;28;20297;-75
2023/03/27 18:43:43;;;;;;;1.70;1.60;;;;;;;;;;6187682;28;20302;-76
2023/03/27 18:46:48;;;;;;;2.27;1.50;;;;;;;;;;6189603;28;20269;-76
2023/03/27 18:49:55;;;;;;;2.40;1.53;;;;;;;;;;6189276;28;20303;-75
2023/03/27 18:53:01;;;;;;;1.67;1.57;;;;;;;;;;6187331;28;20320;-76
2023/03/27 18:56:08;;;;;;;1.60;1.60;;;;;;;;;;6189025;28;20293;-77
2023/03/27 18:59:13;;;;;;;1.80;1.43;;;;;;;;;;6188202;28;20308;-75
2023/03/27 19:02:19;;;;;;;1.63;1.63;;;;;;;;;;6188784;28;20306;-77
2023/03/27 19:05:24;;;;;;;1.40;1.37;;;;;;;;;;6187123;28;20317;-75
2023/03/27 19:08:31;;;;;;;1.70;1.70;;;;;;;;;;6187191;28;20298;-76
2023/03/27 19:11:37;;;;;;;1.37;1.37;;;;;;;;;;6187515;28;20305;-75
2023/03/27 19:15:06;;;;;;;1.30;1.30;;;;;;;;;;6178245;28;20293;-74
2023/03/27 19:18:42;;;;;;;1.33;1.33;;;;;;;;;;6177531;28;20325;-75
2023/03/27 19:21:55;;;;;;;1.60;1.60;;;;;;;;;;6181878;28;20300;-75
2023/03/27 19:25:22;;;;;;;1.60;1.60;;;;;;;;;;6165382;28;20301;-79